METAR Analyzer

一覧表示

Hello, Guest. (Login)

RJCC/CTS  -  札幌/新千歳

観測日時
2020-09-20 04:00 (UTC) (26分前)
気温
21
露点
15
湿数
6
相対湿度
68.6%
QNH
1011.5hPa
推定現地気圧
1008.5hPa
推定海面気圧
1011.4hPa
体感温度
13.4
(無風時)
21.2
HI
20.9
気温前日比
-3
体感温度前日比
-2.6
HI前日比
-2.8
水平視程
>10000m
鉛直視程
データなし
雲底高度
5000ft AGL
V/I
VMC (VFR)
RVR
No RVR data
卓越風
10kt from 190°
ガスト
No gust
降水
しゅう雨性の (周辺において)
その他の天気
報告なし
少しの(1/8) 積雲 @ 2000ft AGL / 隙間のある(5/8) 積雲 @ 5000ft AGL / 隙間のある雲 @ 不明な高さ

RJCC 200400Z 19010KT 9999 VCSH FEW020 BKN050 BKN/// 21/15 Q1011 RMK 1CU020 5CU050 A2987 SH W

RJTT/HND  -  東京/羽田

観測日時
2020-09-20 04:00 (UTC) (26分前)
気温
24
露点
17
湿数
7
相対湿度
64.9%
QNH
1013.2hPa
推定現地気圧
1012.5hPa
推定海面気圧
1013.2hPa
体感温度
17.8
(無風時)
23.3
HI
24.2
気温前日比
-2
体感温度前日比
-2.2
HI前日比
-2.5
水平視程
>10000m
鉛直視程
データなし
雲底高度
13000ft AGL
V/I
VMC (VFR)
RVR
No RVR data
卓越風
7kt from 20° (350° ~ 50°)
ガスト
No gust
降水
弱い雨
その他の天気
報告なし
少しの(1/8) 積雲 @ 2000ft AGL / 散在する(4/8) 層積雲 @ 3000ft AGL / 隙間のある(7/8) 高積雲 @ 13000ft AGL

RJTT 200400Z 02007KT 350V050 9999 -RA FEW020 SCT030 BKN130 24/17 Q1013 NOSIG RMK 1CU020 4SC030 7AC130 A2992

RJAA/NRT  -  東京/成田

観測日時
2020-09-20 04:00 (UTC) (26分前)
気温
24
露点
17
湿数
7
相対湿度
64.9%
QNH
1012.5hPa
推定現地気圧
1011.2hPa
推定海面気圧
1012.5hPa
体感温度
17.5
(無風時)
23.3
HI
24.2
気温前日比
-2
体感温度前日比
-2.7
HI前日比
-2.5
水平視程
>10000m
鉛直視程
データなし
雲底高度
12000ft AGL
V/I
VMC (VFR)
RVR
No RVR data
卓越風
8kt from 90°
ガスト
No gust
降水
弱い雨
その他の天気
報告なし
少しの(1/8) 積雲 @ 2000ft AGL / 散在する(4/8) 高積雲 @ 8000ft AGL / 全天を覆う(8/8) 高層雲 @ 12000ft AGL

RJAA 200400Z 09008KT 9999 -RA FEW020 SCT080 OVC120 24/17 Q1012 BECMG 05008KT RMK 1CU020 4AC080 8AS120 A2990

RJGG/NGO  -  名古屋/中部

観測日時
2020-09-20 04:00 (UTC) (26分前)
気温
23
露点
17
湿数
6
相対湿度
69%
QNH
1013.2hPa
推定現地気圧
1012.7hPa
推定海面気圧
1013.2hPa
体感温度
17.9
(無風時)
22.8
HI
23.2
気温前日比
-4
体感温度前日比
-2.1
HI前日比
-4.3
水平視程
>10000m
鉛直視程
データなし
雲底高度
Unknown
V/I
判定不可
RVR
No RVR data
卓越風
4kt from 190° (110° ~ 260°)
ガスト
No gust
降水
報告なし
その他の天気
報告なし
少しの(1/8) 積雲 @ 2000ft AGL / 隙間のある雲 @ 不明な高さ

RJGG 200400Z 19004KT 110V260 9999 FEW020 BKN/// 23/17 Q1013 NOSIG RMK 1CU020 A2992

株式会社マネーパートナーズ 【Manepa Card】

RJOO/ITM  -  大阪/伊丹

観測日時
2020-09-20 04:00 (UTC) (26分前)
気温
27
露点
15
湿数
12
相対湿度
47.8%
QNH
1013hPa
推定現地気圧
1011.6hPa
推定海面気圧
1013.0hPa
体感温度
21.2
(無風時)
24.4
HI
27.3
気温前日比
-1
体感温度前日比
-0.5
HI前日比
-1.3
水平視程
>10000m
鉛直視程
データなし
雲底高度
Unknown
V/I
判定不可
RVR
No RVR data
卓越風
4kt from VRB
ガスト
No gust
降水
報告なし
その他の天気
報告なし
少しの雲 @ 3000ft AGL / 隙間のある雲 @ 不明な高さ

RJOO 200400Z VRB04KT 9999 FEW030 BKN/// 27/15 Q1013

RJBB/KIX  -  大阪/関西

観測日時
2020-09-20 04:00 (UTC) (26分前)
気温
24
露点
16
湿数
8
相対湿度
60.9%
QNH
1013hPa
推定現地気圧
1012.4hPa
推定海面気圧
1013.0hPa
体感温度
18.3
(無風時)
23.1
HI
24
気温前日比
-2
体感温度前日比
-1.4
HI前日比
-2.3
水平視程
>10000m
鉛直視程
データなし
雲底高度
Unknown
V/I
判定不可
RVR
No RVR data
卓越風
5kt from 280°
ガスト
No gust
降水
報告なし
その他の天気
報告なし
少しの雲 @ 3000ft AGL / 散在する雲 @ 10000ft AGL / 隙間のある雲 @ 不明な高さ

RJBB 200400Z 28005KT 9999 FEW030 SCT100 BKN/// 24/16 Q1013 NOSIG

RJFF/FUK  -  福岡

観測日時
2020-09-20 04:00 (UTC) (26分前)
気温
26
露点
10
湿数
16
相対湿度
36.5%
QNH
1015hPa
推定現地気圧
1013.9hPa
推定海面気圧
1014.9hPa
体感温度
18
(無風時)
23
HI
25.6
気温前日比
±0
体感温度前日比
-0.5
HI前日比
-0.2
水平視程
>10000m
鉛直視程
データなし
雲底高度
Unknown
V/I
判定不可
RVR
No RVR data
卓越風
11kt from 340°
ガスト
No gust
降水
報告なし
その他の天気
報告なし
少しの雲 @ 3500ft AGL / 隙間のある雲 @ 不明な高さ

RJFF 200400Z 34011KT 9999 FEW035 BKN/// 26/10 Q1015 NOSIG

ROAH/OKA  -  那覇

観測日時
2020-09-20 04:00 (UTC) (26分前)
気温
25
露点
24
湿数
1
相対湿度
94.2%
QNH
1011.5hPa
推定現地気圧
1011.1hPa
推定海面気圧
1011.4hPa
体感温度
19.9
(無風時)
25.8
HI
26
気温前日比
-5
体感温度前日比
-6
HI前日比
-11.4
水平視程
>10000m
鉛直視程
データなし
雲底高度
3500ft AGL
V/I
VMC (VFR)
RVR
No RVR data
卓越風
8kt from 20°
ガスト
No gust
降水
弱いしゅう雨性の雨
その他の天気
報告なし
少しの(2/8) 積雲 @ 1000ft AGL / 隙間のある(6/8) 積雲 @ 3500ft AGL

ROAH 200400Z 02008KT 9999 -SHRA FEW010 BKN035 25/24 Q1011 RMK 2CU010 6CU035 A2987

139.3msec